Appam, ND

9:07 PM CDT on August 22, 2014 (GMT -0500)
KNDALAMO3 | Change Station
CLOSE
Current Station
Personal Weather Station
Location: Alamo, ND
Elevation: 2090 ft
Nearby Weather Stations
Active Advisory: Areal Flood Watch

Elev 2090 ft 48.49 °N, 103.51 °W | Updated 10 minutes ago

Overcast
Overcast
63.4 °F
Feels Like 63.4 °F
N
8.0
Wind Variable Wind from ENE
Gusts 14.0 mph

Today
High -- | Low -- °F
--% Chance of Precip.
Yesterday
High -- | Low -- °F
Precip. -- in
6:56 AM 8:55 PM
Waning Crescent, 6% visible
Pressure 30.16 in
Visibility 10.0 miles
Clouds Overcast 4400 ft
Dew Point 56 °F
Humidity 77%
Rainfall 0.00 in
Snow Depth Not available.
UV 0.0 out of 12
Pollen 3.10 out of 12
Air Quality Not available.
Flu Activity Not available.
METAR KD50 230155Z AUTO 06008KT 10SM OVC044 17/14 A3016 RMK AO2

More Conditions Fewer Conditions

Pressure 30.16 in
Visibility 10.0 miles
Clouds Overcast 4400 ft
Dew Point 56 °F
Humidity 77%
Rainfall 0.00 in
Snow Depth Not available.
UV 0.0 out of 12
Pollen 3.10 out of 12
Air Quality Not available.
Flu Activity Not available.
METAR KD50 230155Z AUTO 06008KT 10SM OVC044 17/14 A3016 RMK AO2

More Conditions Fewer Conditions

10-Day Weather Forecast

Almanac

Astronomy

Aug. 22, 2014 Rise Set
Actual Time 6:56 AM CDT 8:55 PM CDT
Civil Twilight 6:23 AM CDT 9:28 PM CDT
Nautical Twilight 5:41 AM CDT 10:10 PM CDT
Astronomical Twilight 4:54 AM CDT 10:56 PM CDT
Moon 4:15 AM CDT (8/22) 7:09 PM CDT (8/22)
Length of Visible Light 15h 05m
Length of Day
13h 58m
Tomorrow will be 3m 19s shorter.
Waning Crescent, 6% of the Moon is Illuminated
Today
Waning Crescent
Aug 25
New
Sep 2
First Quarter
Sep 8
Full
Sep 15
Last Quarter

Today's Extremes

State Highs State Lows

Community

WunderPhotos

Upload Photos

1,746,348 photos uploaded!

WunderBlogs® & News

Nearby

Snow Depth

Station Depth Elevation
No new snow has been reported.

Earthquake Activity

City Distance Mag. Time & Date
No recent earthquake activity has been reported nearby.
Minimum magnitude displayed is 2.5.

Coastal Water Temperatures

Place Temperature
No Stations Reporting

Nearby Weather Stations